Time;durP1;ratioP1;P1;durP2;ratioP2;P2;SDS_P1;SDS_P2;PMS_P1;PMS_P2;Temp;Humidity;BMP_temperature;BMP_pressure;BME280_temperature;BME280_humidity;BME280_pressure;Samples;Min_cycle;Max_cycle;Signal;HPM_P1;HPM_P2
2022/12/20 00:04:58;;;;;;;13.37;8.20;;;;;;;16.14;53.15;97138.66;10453080;28;20559;-30
2022/12/20 00:09:58;;;;;;;10.43;7.70;;;;;;;16.14;53.21;97137.81;10446798;28;20062;-28
2022/12/20 00:14:58;;;;;;;11.43;8.18;;;;;;;16.16;53.06;97126.91;10443382;28;20017;-29
2022/12/20 00:19:59;;;;;;;12.93;7.73;;;;;;;16.16;52.99;97134.50;10449934;28;20036;-29
2022/12/20 00:24:59;;;;;;;11.07;7.70;;;;;;;16.16;52.68;97126.91;10434316;28;20028;-29
2022/12/20 00:29:59;;;;;;;11.03;7.57;;;;;;;16.09;52.51;97120.06;10441984;28;20107;-29
2022/12/20 00:35:00;;;;;;;8.90;6.70;;;;;;;16.16;52.82;97126.91;10442810;28;20029;-30
2022/12/20 00:40:00;;;;;;;12.97;7.47;;;;;;;16.17;52.66;97126.06;10444662;28;20037;-29
2022/12/20 00:45:02;;;;;;;11.50;7.00;;;;;;;16.18;52.78;97120.19;10435105;28;20025;-29
2022/12/20 00:50:02;;;;;;;10.35;7.35;;;;;;;16.18;52.30;97110.09;10437723;28;20033;-28
2022/12/20 00:55:03;;;;;;;10.68;8.00;;;;;;;16.19;52.66;97116.84;10444464;28;20024;-29
2022/12/20 01:00:04;;;;;;;8.55;6.32;;;;;;;16.16;52.74;97116.81;10438849;28;20036;-29
2022/12/20 01:05:05;;;;;;;10.23;6.85;;;;;;;16.14;52.43;97115.06;10450744;28;20029;-28
2022/12/20 01:10:06;;;;;;;12.68;7.13;;;;;;;16.16;52.73;97106.69;10435230;28;20033;-28
2022/12/20 01:15:07;;;;;;;12.52;7.78;;;;;;;16.15;53.15;97094.91;10444128;28;20481;-29
2022/12/20 01:20:08;;;;;;;10.15;6.68;;;;;;;16.14;53.20;97098.25;10448375;28;20040;-28
2022/12/20 01:25:09;;;;;;;8.32;6.60;;;;;;;16.15;52.93;97099.97;10432669;28;20037;-29
2022/12/20 01:30:10;;;;;;;9.85;6.63;;;;;;;16.19;52.82;97093.28;10443292;28;20118;-29
2022/12/20 01:35:10;;;;;;;10.95;6.53;;;;;;;16.17;52.54;97093.25;10440473;28;20120;-29
2022/12/20 01:40:10;;;;;;;8.83;6.73;;;;;;;16.16;52.39;97103.31;10447675;28;20094;-29
2022/12/20 01:45:21;;;;;;;9.32;6.38;;;;;;;16.15;52.88;97094.91;10439025;28;20029;-28
2022/12/20 01:50:22;;;;;;;9.82;6.05;;;;;;;16.16;52.47;97095.75;10437601;28;20040;-29
2022/12/20 01:55:26;;;;;;;7.00;5.78;;;;;;;16.15;52.62;97094.03;10444141;28;20178;-29
2022/12/20 02:00:28;;;;;;;9.23;6.05;;;;;;;16.12;52.56;97069.56;10435142;28;20623;-31
2022/12/20 02:05:34;;;;;;;8.07;6.05;;;;;;;16.15;52.52;97079.75;10443179;28;20542;-29
2022/12/20 02:11:07;;;;;;;8.63;5.97;;;;;;;16.15;52.77;97074.69;10437562;28;20541;-29
2022/12/20 02:16:09;;;;;;;10.85;6.60;;;;;;;16.13;52.21;97066.22;10431229;28;20111;-29
2022/12/20 02:21:28;;;;;;;7.78;5.30;;;;;;;16.14;52.39;97067.09;10446107;28;20064;-29
2022/12/20 02:26:46;;;;;;;8.18;5.80;;;;;;;16.07;52.55;97042.56;10441400;28;20037;-29
2022/12/20 02:32:07;;;;;;;7.68;4.93;;;;;;;16.12;52.64;97029.16;10439471;28;20033;-29
2022/12/20 02:37:08;;;;;;;8.75;5.25;;;;;;;16.13;52.54;97033.38;10435782;28;20116;-29
2022/12/20 02:42:15;;;;;;;9.82;5.80;;;;;;;16.10;53.01;97030.84;10443535;28;20037;-29
2022/12/20 02:47:22;;;;;;;8.02;4.78;;;;;;;16.13;53.07;97042.66;10436472;28;20025;-29
2022/12/20 02:52:25;;;;;;;;;;;;;;;16.08;52.53;97022.41;10434011;28;20136;-28
2022/12/20 02:57:47;;;;;;;7.10;5.13;;;;;;;16.13;52.50;97025.81;10431133;28;20661;-28
2022/12/20 03:08:09;;;;;;;6.93;4.65;;;;;;;16.09;52.83;97008.06;10436162;28;20059;-28
2022/12/20 03:13:09;;;;;;;7.00;4.60;;;;;;;16.09;52.42;96998.84;10425306;28;20037;-29
2022/12/20 03:18:16;;;;;;;6.68;4.70;;;;;;;16.09;52.42;96980.28;10438269;28;20029;-29
2022/12/20 03:23:16;;;;;;;7.50;4.43;;;;;;;16.13;52.62;96975.28;10432055;28;20025;-28
2022/12/20 03:28:16;;;;;;;7.37;5.20;;;;;;;16.15;52.16;96983.78;10428678;28;20029;-29
2022/12/20 03:33:17;;;;;;;5.72;4.30;;;;;;;16.13;52.33;96985.41;10439787;28;20802;-29
2022/12/20 03:38:18;;;;;;;6.82;4.97;;;;;;;16.16;52.00;96984.59;10431212;28;20025;-29
2022/12/20 03:43:18;;;;;;;7.73;5.43;;;;;;;16.16;51.95;96982.94;10434691;28;20879;-29
2022/12/20 03:48:18;;;;;;;6.38;4.70;;;;;;;16.06;52.48;96962.59;10442549;28;20279;-29
2022/12/20 03:53:19;;;;;;;7.07;4.82;;;;;;;16.13;52.52;96982.03;10430387;28;20041;-28
2022/12/20 03:58:20;;;;;;;6.10;4.35;;;;;;;16.15;51.87;96978.72;10430981;28;20021;-29
2022/12/20 04:03:20;;;;;;;6.03;4.25;;;;;;;16.12;52.99;96958.44;10441955;28;20021;-29
2022/12/20 04:08:21;;;;;;;6.95;4.20;;;;;;;16.13;52.80;96971.94;10432811;28;20028;-28
2022/12/20 04:13:23;;;;;;;5.70;4.45;;;;;;;16.13;52.85;96971.94;10435619;28;20033;-29
2022/12/20 04:18:24;;;;;;;5.68;4.22;;;;;;;16.12;52.69;96971.06;10432289;28;20029;-28
2022/12/20 04:23:25;;;;;;;5.97;4.10;;;;;;;16.14;52.25;96966.06;10427237;28;20036;-30
2022/12/20 04:28:26;;;;;;;5.32;4.13;;;;;;;16.14;52.48;96966.91;10437225;28;20034;-29
2022/12/20 04:33:28;;;;;;;4.50;3.72;;;;;;;16.14;52.68;96966.06;10435056;28;20025;-29
2022/12/20 04:38:29;;;;;;;5.38;3.88;;;;;;;16.11;52.09;96954.22;10439811;28;20033;-30
2022/12/20 04:43:30;;;;;;;6.18;3.67;;;;;;;16.09;52.34;96950.84;10427606;28;20374;-29
2022/12/20 04:48:33;;;;;;;6.22;4.00;;;;;;;16.13;51.96;96945.00;10430762;28;20053;-29
2022/12/20 04:53:48;;;;;;;5.00;3.90;;;;;;;16.15;51.76;96938.31;10436275;28;20040;-29
2022/12/20 04:59:02;;;;;;;5.07;4.20;;;;;;;16.19;51.57;96939.19;10436495;28;20033;-29
2022/12/20 05:04:03;;;;;;;6.03;3.90;;;;;;;16.19;52.04;96934.97;10445126;28;20041;-30
2022/12/20 05:09:08;;;;;;;4.18;3.42;;;;;;;16.20;51.76;96931.63;10444529;28;20028;-29
2022/12/20 05:14:08;;;;;;;5.00;3.70;;;;;;;16.21;51.67;96933.31;10446050;28;20017;-30
2022/12/20 05:19:09;;;;;;;5.70;3.70;;;;;;;16.23;51.74;96924.09;10441411;28;20114;-27
2022/12/20 05:29:50;;;;;;;;;;;;;;;16.16;52.17;96893.66;10433920;28;20045;-29
2022/12/20 05:34:51;;;;;;;4.57;3.47;;;;;;;16.22;52.06;96914.81;10435976;28;19920;-29
2022/12/20 05:39:53;;;;;;;5.15;3.95;;;;;;;16.23;52.08;96919.03;10432034;28;20116;-29
2022/12/20 05:44:56;;;;;;;5.75;4.25;;;;;;;16.25;51.89;96914.84;10429962;28;20579;-30
2022/12/20 05:49:57;;;;;;;4.72;3.53;;;;;;;16.24;51.73;96915.69;10447178;28;20029;-29
2022/12/20 05:54:57;;;;;;;6.32;3.60;;;;;;;16.23;52.04;96906.41;10436511;28;20393;-29
2022/12/20 05:59:59;;;;;;;4.22;3.22;;;;;;;16.25;51.93;96904.75;10438612;28;20025;-29
2022/12/20 06:05:01;;;;;;;3.65;3.15;;;;;;;16.23;51.91;96900.50;10441120;28;20044;-30
2022/12/20 06:10:02;;;;;;;4.13;3.20;;;;;;;16.23;51.74;96895.44;10445235;28;20140;-29
2022/12/20 06:15:27;;;;;;;6.53;4.07;;;;;;;16.18;52.48;96887.00;10428938;28;20036;-30
2022/12/20 06:20:28;;;;;;;5.45;3.78;;;;;;;16.17;52.96;96896.22;10394925;28;20036;-30
2022/12/20 06:25:31;;;;;;;5.03;3.83;;;;;;;16.17;53.23;96898.75;10395419;28;20665;-31
2022/12/20 06:30:33;;;;;;;8.32;3.75;;;;;;;16.16;53.98;96897.06;10397637;28;20370;-29
2022/12/20 06:35:39;;;;;;;4.75;3.50;;;;;;;16.18;53.63;96894.56;10395332;28;20017;-29
2022/12/20 06:40:41;;;;;;;5.82;4.18;;;;;;;16.15;53.70;96897.91;10400142;28;20025;-28
2022/12/20 06:45:42;;;;;;;6.22;4.15;;;;;;;16.19;53.74;96903.84;10394310;28;20541;-29
2022/12/20 06:50:42;;;;;;;6.65;3.78;;;;;;;16.18;54.42;96902.13;10392784;28;20528;-28
2022/12/20 06:55:46;;;;;;;6.03;3.88;;;;;;;16.17;54.59;96916.44;10401174;28;20139;-29
2022/12/20 07:00:47;;;;;;;11.13;7.38;;;;;;;16.17;53.90;96908.84;10396636;28;20033;-28
2022/12/20 07:05:54;;;;;;;18.50;8.65;;;;;;;16.16;54.34;96909.69;10383269;28;20104;-28
2022/12/20 07:10:55;;;;;;;;;;;;;;;16.17;55.10;96911.38;10400955;28;20036;-29
2022/12/20 07:15:59;;;;;;;20.27;10.65;;;;;;;16.21;54.74;96908.03;10389970;28;19927;-30
2022/12/20 07:21:01;;;;;;;17.45;9.57;;;;;;;16.22;53.76;96907.25;10403722;28;20021;-31
2022/12/20 07:26:02;;;;;;;18.63;10.30;;;;;;;16.21;54.15;96902.16;10405227;28;20086;-30
2022/12/20 07:31:03;;;;;;;23.52;10.73;;;;;;;16.21;54.54;96892.06;10399381;28;20021;-29
2022/12/20 07:36:07;;;;;;;23.52;11.38;;;;;;;16.26;54.60;96891.28;10396012;28;20036;-29
2022/12/20 07:41:09;;;;;;;24.83;13.52;;;;;;;16.23;54.65;96885.34;10380918;28;20086;-29
2022/12/20 07:46:12;;;;;;;21.40;13.27;;;;;;;16.26;54.50;96901.38;10389090;28;20055;-29
2022/12/20 07:51:26;;;;;;;21.73;10.95;;;;;;;16.19;54.14;96892.03;10393871;28;20038;-28
2022/12/20 07:56:30;;;;;;;28.25;11.70;;;;;;;16.18;54.17;96875.19;10397974;28;20430;-29
2022/12/20 08:01:30;;;;;;;26.38;12.25;;;;;;;16.00;54.60;96836.25;10395867;28;20621;-30
2022/12/20 08:06:32;;;;;;;22.85;12.32;;;;;;;16.21;54.56;96866.81;10436202;28;20025;-29
2022/12/20 08:11:36;;;;;;;30.45;14.88;;;;;;;16.23;55.32;96865.13;10433834;28;20096;-29
2022/12/20 08:16:36;;;;;;;24.67;15.02;;;;;;;16.19;54.93;96865.94;10434188;28;20036;-28
2022/12/20 08:21:37;;;;;;;27.87;14.80;;;;;;;16.19;55.09;96873.53;10430725;28;20026;-29
2022/12/20 08:26:39;;;;;;;26.52;13.65;;;;;;;16.19;55.02;96874.34;10436843;28;20283;-28
2022/12/20 08:31:41;;;;;;;24.88;13.60;;;;;;;16.23;53.99;96876.09;10438449;28;20036;-29
2022/12/20 08:36:42;;;;;;;24.58;14.02;;;;;;;16.25;54.26;96876.09;10444074;28;20428;-29
2022/12/20 08:41:43;;;;;;;23.48;13.27;;;;;;;16.23;54.31;96866.00;10446462;28;20056;-29
2022/12/20 08:46:44;;;;;;;23.97;13.67;;;;;;;16.23;54.33;96876.09;10441334;28;20930;-28
2022/12/20 08:51:44;;;;;;;23.45;13.05;;;;;;;16.14;54.43;96857.47;10443334;28;20029;-29
2022/12/20 08:56:45;;;;;;;23.57;13.23;;;;;;;16.20;54.23;96865.94;10441123;28;20377;-28
2022/12/20 09:01:45;;;;;;;22.87;12.50;;;;;;;16.19;54.25;96848.25;10449768;28;20282;-30
2022/12/20 09:06:46;;;;;;;24.95;13.15;;;;;;;16.21;54.50;96862.56;10439275;28;20056;-29
2022/12/20 09:11:46;;;;;;;23.23;13.20;;;;;;;16.23;54.24;96860.94;10440929;28;20036;-29
2022/12/20 09:16:46;;;;;;;20.88;12.45;;;;;;;16.16;54.11;96849.06;10446340;28;20029;-29
2022/12/20 09:21:47;;;;;;;20.33;11.73;;;;;;;16.21;54.47;96857.53;10438287;28;20640;-29
2022/12/20 09:26:47;;;;;;;19.03;11.03;;;;;;;16.19;54.26;96854.16;10435762;28;20293;-29
2022/12/20 09:31:48;;;;;;;19.23;11.67;;;;;;;16.19;54.41;96849.09;10434907;28;20041;-29
2022/12/20 09:36:49;;;;;;;18.80;12.10;;;;;;;16.17;54.54;96840.66;10442595;28;20577;-30
2022/12/20 09:41:49;;;;;;;19.37;12.03;;;;;;;16.21;54.57;96836.50;10444925;28;20045;-29
2022/12/20 09:47:14;;;;;;;22.60;12.30;;;;;;;16.21;54.49;96827.22;10438899;28;20041;-29
2022/12/20 09:52:40;;;;;;;18.65;11.40;;;;;;;16.19;54.46;96821.31;10440971;28;20094;-29
2022/12/20 09:58:12;;;;;;;19.57;12.10;;;;;;;16.02;54.13;96797.56;10439233;28;20526;-29
2022/12/20 10:03:20;;;;;;;19.95;12.00;;;;;;;16.18;54.19;96827.19;10446546;28;20103;-29
2022/12/20 10:08:42;;;;;;;18.23;11.45;;;;;;;16.18;54.38;96814.56;10441405;28;20033;-29
2022/12/20 10:14:10;;;;;;;19.25;12.00;;;;;;;16.18;54.18;96819.63;10435354;28;20120;-29
2022/12/20 10:19:38;;;;;;;19.65;11.32;;;;;;;16.18;53.90;96812.03;10439815;28;20035;-28
2022/12/20 10:24:46;;;;;;;18.02;11.13;;;;;;;16.16;54.26;96796.03;10434487;28;20041;-29
2022/12/20 10:29:49;;;;;;;17.83;11.30;;;;;;;16.18;54.00;96803.63;10444138;28;20028;-29
2022/12/20 10:34:55;;;;;;;17.63;10.63;;;;;;;16.17;54.05;96800.25;10435471;28;20037;-29
2022/12/20 10:39:56;;;;;;;17.05;10.57;;;;;;;16.17;54.02;96794.34;10440558;28;20043;-29
2022/12/20 10:44:57;;;;;;;18.10;11.07;;;;;;;16.15;54.08;96796.88;10436047;28;20476;-29
2022/12/20 10:50:12;;;;;;;19.73;10.93;;;;;;;16.17;54.10;96807.81;10444329;28;20556;-29
2022/12/20 10:55:45;;;;;;;17.10;10.02;;;;;;;16.18;54.19;96807.00;10439269;28;20434;-29
2022/12/20 11:00:46;;;;;;;19.10;11.35;;;;;;;16.16;54.18;96778.34;10415738;28;20053;-28
2022/12/20 11:06:03;;;;;;;18.27;11.02;;;;;;;16.16;54.73;96758.16;10433330;28;20029;-29
2022/12/20 11:11:18;;;;;;;18.23;11.05;;;;;;;16.13;54.39;96737.06;10444770;28;20412;-29
2022/12/20 11:16:28;;;;;;;18.13;10.45;;;;;;;16.16;54.54;96737.09;10437462;28;20433;-29
2022/12/20 11:21:43;;;;;;;13.70;9.00;;;;;;;16.16;54.22;96735.41;10439843;28;20094;-29
2022/12/20 11:27:36;;;;;;;17.95;10.48;;;;;;;16.19;53.82;96732.91;10431165;28;20021;-29
2022/12/20 11:33:06;;;;;;;15.25;10.02;;;;;;;16.22;53.59;96738.00;10375196;28;20026;-28
2022/12/20 11:38:28;;;;;;;17.88;10.38;;;;;;;16.23;54.23;96734.66;10408659;28;20042;-29
2022/12/20 11:43:45;;;;;;;14.68;9.98;;;;;;;16.15;54.11;96738.78;10443594;28;20044;-28
2022/12/20 11:49:01;;;;;;;18.50;11.15;;;;;;;16.22;53.99;96725.38;10440081;28;20032;-28
2022/12/20 11:54:08;;;;;;;21.23;10.85;;;;;;;16.25;54.37;96712.75;10434457;28;20033;-29
2022/12/20 11:59:13;;;;;;;24.65;11.55;;;;;;;16.29;53.61;96694.25;10442748;28;20100;-30
2022/12/20 12:04:19;;;;;;;17.25;10.70;;;;;;;16.29;53.79;96684.16;10447519;28;20037;-28
2022/12/20 12:09:26;;;;;;;19.37;10.97;;;;;;;16.29;53.44;96674.03;10445482;28;20029;-29
2022/12/20 12:14:55;;;;;;;17.35;9.82;;;;;;;16.35;53.58;96673.28;10445594;28;20112;-28
2022/12/20 12:20:13;;;;;;;16.25;9.95;;;;;;;16.35;53.33;96673.28;10450066;28;20032;-29
2022/12/20 12:25:17;;;;;;;17.58;11.02;;;;;;;16.33;54.02;96677.44;10444849;28;20120;-29
2022/12/20 12:30:18;;;;;;;17.15;10.35;;;;;;;16.31;54.56;96669.88;10442773;28;20025;-29
2022/12/20 12:35:44;;;;;;;16.10;9.95;;;;;;;16.29;54.30;96663.13;10445336;28;20238;-30
2022/12/20 12:41:22;;;;;;;18.60;10.65;;;;;;;16.29;53.84;96653.84;10450487;28;20036;-28
2022/12/20 12:46:35;;;;;;;16.60;10.45;;;;;;;16.30;53.83;96658.06;10441845;28;20037;-29
2022/12/20 12:51:40;;;;;;;18.85;10.55;;;;;;;16.27;54.38;96644.59;10433778;28;20094;-28
2022/12/20 12:56:45;;;;;;;17.70;10.80;;;;;;;16.28;54.30;96644.56;10435694;28;20402;-28
2022/12/20 13:01:47;;;;;;;24.33;10.73;;;;;;;16.27;54.57;96640.34;10449721;28;20029;-31
2022/12/20 13:06:47;;;;;;;17.13;10.55;;;;;;;16.28;53.91;96649.63;10440828;28;20114;-29
2022/12/20 13:11:48;;;;;;;20.00;11.27;;;;;;;16.32;54.04;96642.91;10439184;28;20632;-28
2022/12/20 13:17:01;;;;;;;19.67;11.65;;;;;;;16.37;54.49;96621.09;10442120;28;20051;-28
2022/12/20 13:22:10;;;;;;;26.00;15.70;;;;;;;16.32;55.63;96613.47;10433942;28;20036;-28
2022/12/20 13:27:22;;;;;;;25.95;16.33;;;;;;;16.32;55.45;96608.41;10438032;28;20592;-29
2022/12/20 13:32:48;;;;;;;26.50;16.55;;;;;;;16.27;55.58;96587.31;10439154;28;20025;-28
2022/12/20 13:37:52;;;;;;;22.05;14.30;;;;;;;16.28;55.28;96595.75;10440208;28;20036;-28
2022/12/20 13:42:55;;;;;;;25.67;15.55;;;;;;;16.27;55.13;96602.47;10437802;28;20041;-29
2022/12/20 13:48:02;;;;;;;24.15;14.85;;;;;;;16.22;55.71;96593.16;10435857;28;20072;-29
2022/12/20 13:53:03;;;;;;;23.52;15.70;;;;;;;16.21;55.86;96597.38;10429956;28;20033;-28
2022/12/20 13:58:06;;;;;;;24.75;14.82;;;;;;;16.18;55.89;96588.94;10435123;28;20123;-29
2022/12/20 14:03:20;;;;;;;23.95;15.43;;;;;;;16.23;55.54;96597.38;10436251;28;20025;-29
2022/12/20 14:08:27;;;;;;;23.58;15.13;;;;;;;16.23;55.97;96595.72;10440016;28;20078;-28
2022/12/20 14:13:27;;;;;;;23.40;15.47;;;;;;;16.20;55.58;96610.84;10441086;28;20037;-29
2022/12/20 14:18:27;;;;;;;21.50;13.83;;;;;;;16.21;55.13;96607.47;10438097;28;20047;-29
2022/12/20 14:23:42;;;;;;;22.03;14.43;;;;;;;16.21;55.41;96607.47;10440201;28;20405;-28
2022/12/20 14:28:47;;;;;;;20.35;13.95;;;;;;;16.14;55.25;96608.28;10428989;28;20029;-29
2022/12/20 14:33:49;;;;;;;20.67;13.77;;;;;;;16.21;55.35;96615.03;10440712;28;20128;-29
2022/12/20 14:38:51;;;;;;;19.95;13.02;;;;;;;16.22;54.76;96615.91;10444245;28;20069;-28
2022/12/20 14:43:56;;;;;;;19.00;13.18;;;;;;;16.19;55.49;96628.53;10432046;28;20045;-27
2022/12/20 14:49:18;;;;;;;19.00;13.30;;;;;;;16.17;55.98;96609.97;10443527;28;20044;-29
2022/12/20 14:54:21;;;;;;;19.08;13.18;;;;;;;16.12;55.90;96614.97;10422031;28;20338;-28
2022/12/20 14:59:27;;;;;;;18.73;12.25;;;;;;;16.18;55.26;96609.16;10437435;28;20514;-29
2022/12/20 15:04:34;;;;;;;24.17;13.85;;;;;;;16.10;56.66;96588.88;10435183;28;20022;-28
2022/12/20 15:09:34;;;;;;;25.53;14.13;;;;;;;16.17;58.25;96602.38;10434508;28;20082;-28
2022/12/20 15:14:38;;;;;;;24.90;14.53;;;;;;;16.17;57.77;96612.50;10433389;28;20287;-29
2022/12/20 15:19:38;;;;;;;18.27;12.63;;;;;;;16.16;57.76;96616.72;10430486;28;20325;-29
2022/12/20 15:24:39;;;;;;;21.95;13.35;;;;;;;16.20;57.43;96612.53;10436272;28;20132;-29
2022/12/20 15:29:39;;;;;;;18.83;12.07;;;;;;;16.20;56.75;96623.47;10425928;28;20025;-28
2022/12/20 15:34:39;;;;;;;17.37;12.63;;;;;;;16.26;55.79;96608.34;10437584;28;20017;-28
2022/12/20 15:39:40;;;;;;;16.37;11.27;;;;;;;16.26;55.39;96608.34;10444297;28;20059;-29
2022/12/20 15:44:41;;;;;;;22.58;12.60;;;;;;;16.24;57.11;96607.50;10431398;28;20283;-28
2022/12/20 15:49:41;;;;;;;20.23;12.20;;;;;;;16.19;56.90;96611.69;10443349;28;20041;-29
2022/12/20 15:54:42;;;;;;;22.77;12.10;;;;;;;16.20;56.58;96605.78;10433024;28;20033;-29
2022/12/20 15:59:42;;;;;;;17.87;12.23;;;;;;;16.17;56.92;96618.41;10435923;28;20352;-28
2022/12/20 16:04:42;;;;;;;15.17;10.90;;;;;;;16.20;57.05;96612.53;10435769;28;20025;-29
2022/12/20 16:09:43;;;;;;;16.30;11.73;;;;;;;16.19;56.70;96610.84;10444324;28;20039;-27
2022/12/20 16:14:43;;;;;;;15.07;10.63;;;;;;;16.18;56.60;96604.09;10441435;28;20029;-28
2022/12/20 16:19:44;;;;;;;18.27;11.20;;;;;;;16.19;56.19;96586.41;10433750;28;20577;-28
2022/12/20 16:24:45;;;;;;;14.73;11.05;;;;;;;16.18;56.29;96591.47;10439860;28;20052;-28
2022/12/20 16:29:45;;;;;;;14.55;10.20;;;;;;;16.19;56.22;96580.53;10425724;28;20147;-28
2022/12/20 16:34:48;;;;;;;15.87;9.93;;;;;;;16.16;56.76;96571.25;10437271;28;20086;-28
2022/12/20 16:39:48;;;;;;;22.63;10.70;;;;;;;16.19;56.30;96571.25;10428986;28;20033;-29
2022/12/20 16:44:51;;;;;;;18.40;10.63;;;;;;;16.15;56.42;96551.88;10427361;28;20044;-27
2022/12/20 16:49:52;;;;;;;16.70;10.30;;;;;;;16.21;55.90;96556.94;10448524;28;20462;-28
2022/12/20 16:54:52;;;;;;;13.15;9.07;;;;;;;16.23;56.29;96556.97;10441386;28;20069;-28
2022/12/20 16:59:53;;;;;;;14.07;9.17;;;;;;;16.23;56.10;96542.69;10443138;28;20025;-28
2022/12/20 17:04:54;;;;;;;18.33;9.77;;;;;;;16.24;56.06;96539.31;10437673;28;20083;-29
2022/12/20 17:09:54;;;;;;;13.23;9.20;;;;;;;16.25;55.98;96541.00;10451119;28;20045;-28
2022/12/20 17:14:55;;;;;;;15.23;10.60;;;;;;;16.26;56.68;96537.63;10444291;28;20020;-28
2022/12/20 17:19:55;;;;;;;12.02;9.05;;;;;;;16.28;56.44;96530.06;10444938;28;20283;-30
2022/12/20 17:24:56;;;;;;;16.87;10.60;;;;;;;16.28;56.88;96546.06;10433862;28;20024;-29
2022/12/20 17:29:56;;;;;;;15.17;10.07;;;;;;;16.30;56.25;96544.38;10435746;28;20291;-29
2022/12/20 17:34:57;;;;;;;18.70;9.77;;;;;;;16.29;56.79;96552.78;10445534;28;20028;-29
2022/12/20 17:39:58;;;;;;;17.63;11.00;;;;;;;16.30;56.75;96549.44;10437772;28;20279;-28
2022/12/20 17:44:58;;;;;;;19.30;11.07;;;;;;;16.30;57.23;96538.50;10435251;28;20029;-28
2022/12/20 17:49:59;;;;;;;16.83;10.63;;;;;;;16.30;56.62;96544.38;10436723;28;20100;-30
2022/12/20 17:54:59;;;;;;;20.15;10.35;;;;;;;16.29;56.87;96531.75;10432018;28;20024;-28
2022/12/20 18:00:00;;;;;;;13.40;8.67;;;;;;;16.30;56.64;96531.75;10439313;28;20369;-28
2022/12/20 18:05:00;;;;;;;16.57;9.67;;;;;;;16.23;57.51;96537.63;10437882;28;20025;-29
2022/12/20 18:10:00;;;;;;;23.37;12.80;;;;;;;16.33;56.80;96554.53;10441547;28;20048;-28
2022/12/20 18:15:01;;;;;;;28.40;14.37;;;;;;;16.34;57.58;96557.88;10435796;28;20279;-28
2022/12/20 18:20:02;;;;;;;29.85;14.70;;;;;;;16.31;58.02;96551.16;10444229;28;20453;-29
2022/12/20 18:25:06;;;;;;;32.53;14.38;;;;;;;16.34;57.69;96551.16;10438341;28;20124;-28
2022/12/20 18:30:10;;;;;;;31.58;15.55;;;;;;;16.32;58.22;96552.84;10442706;28;20033;-28
2022/12/20 18:35:11;;;;;;;41.55;15.23;;;;;;;16.32;58.63;96544.41;10441128;28;20400;-31
2022/12/20 18:40:12;;;;;;;25.10;13.13;;;;;;;16.34;58.15;96533.47;10444322;28;20028;-28
2022/12/20 18:45:12;;;;;;;32.53;15.13;;;;;;;16.31;59.21;96530.94;10436614;28;20123;-28
2022/12/20 18:50:13;;;;;;;28.47;13.83;;;;;;;16.35;58.23;96532.63;10434323;28;20025;-30
2022/12/20 18:55:14;;;;;;;30.88;14.82;;;;;;;16.32;58.49;96525.03;10439273;28;20382;-28
2022/12/20 19:00:15;;;;;;;33.60;13.65;;;;;;;16.36;58.60;96529.25;10432366;28;20469;-28
2022/12/20 19:05:15;;;;;;;26.50;12.60;;;;;;;16.39;58.67;96529.34;10435725;28;20658;-28
2022/12/20 19:10:16;;;;;;;22.33;11.70;;;;;;;16.41;58.34;96542.81;10427320;28;20159;-29
2022/12/20 19:15:16;;;;;;;23.97;12.37;;;;;;;16.41;58.70;96547.88;10439892;28;20035;-28
2022/12/20 19:20:16;;;;;;;25.20;12.53;;;;;;;16.41;59.01;96547.88;10443491;28;20036;-28
2022/12/20 19:25:17;;;;;;;27.23;13.00;;;;;;;16.37;60.21;96553.72;10434013;28;20083;-30
2022/12/20 19:30:18;;;;;;;24.23;13.40;;;;;;;16.23;60.42;96550.25;10432456;28;20385;-29
2022/12/20 19:35:18;;;;;;;21.25;11.85;;;;;;;16.42;58.09;96579.88;10443218;28;20314;-28
2022/12/20 19:40:18;;;;;;;24.70;12.20;;;;;;;16.41;59.46;96578.19;10435878;28;20472;-28
2022/12/20 19:45:19;;;;;;;26.10;12.63;;;;;;;16.42;59.82;96576.47;10435089;28;20310;-28
2022/12/20 19:50:19;;;;;;;23.90;11.50;;;;;;;16.41;60.12;96567.22;10433374;28;20480;-28
2022/12/20 19:55:20;;;;;;;22.20;12.10;;;;;;;16.22;60.18;96535.94;10436488;28;20414;-28
2022/12/20 20:00:20;;;;;;;22.65;11.48;;;;;;;16.44;59.13;96568.09;10439461;28;20033;-28
2022/12/20 20:05:21;;;;;;;16.73;11.10;;;;;;;16.44;59.24;96583.25;10431090;28;20055;-28
2022/12/20 20:10:21;;;;;;;19.63;10.47;;;;;;;16.42;58.94;96579.88;10434932;28;20294;-29
2022/12/20 20:15:21;;;;;;;22.03;11.03;;;;;;;16.45;58.64;96569.75;10442113;28;20040;-29
2022/12/20 20:20:22;;;;;;;15.77;9.97;;;;;;;16.44;59.00;96570.59;10442432;28;20028;-29
2022/12/20 20:25:22;;;;;;;19.47;10.83;;;;;;;16.42;59.57;96569.75;10436761;28;20030;-29
2022/12/20 20:30:22;;;;;;;19.53;9.60;;;;;;;16.45;58.37;96574.00;10439958;28;20029;-28
2022/12/20 20:35:23;;;;;;;21.40;11.53;;;;;;;16.45;58.49;96574.81;10444797;28;20263;-28
2022/12/20 20:40:23;;;;;;;19.43;9.43;;;;;;;16.41;58.81;96568.06;10439445;28;20032;-28
2022/12/20 20:45:24;;;;;;;15.87;9.73;;;;;;;16.40;59.06;96571.44;10440975;28;20053;-28
2022/12/20 20:50:24;;;;;;;21.52;9.52;;;;;;;16.37;59.32;96571.41;10449050;28;20037;-29
2022/12/20 20:55:25;;;;;;;15.95;9.75;;;;;;;16.39;58.99;96579.84;10441708;28;20440;-28
2022/12/20 21:00:28;;;;;;;13.60;8.93;;;;;;;16.42;58.33;96592.50;10443193;28;20380;-27
2022/12/20 21:05:28;;;;;;;15.48;8.60;;;;;;;16.42;58.82;96589.97;10439537;28;20124;-29
2022/12/20 21:10:29;;;;;;;15.15;8.88;;;;;;;16.39;58.29;96579.84;10449450;28;20078;-28
2022/12/20 21:15:29;;;;;;;17.10;9.18;;;;;;;16.37;58.33;96571.41;10444367;28;20025;-29
2022/12/20 21:20:29;;;;;;;15.40;8.43;;;;;;;16.39;58.48;96564.69;10447741;28;20492;-29
2022/12/20 21:25:30;;;;;;;15.57;8.30;;;;;;;16.40;58.49;96558.81;10443356;28;20298;-29
2022/12/20 21:30:31;;;;;;;15.68;8.52;;;;;;;16.32;58.01;96535.16;10437895;28;20064;-27
2022/12/20 21:35:31;;;;;;;13.63;7.75;;;;;;;16.40;57.74;96561.34;10442612;28;20024;-29
2022/12/20 21:40:32;;;;;;;15.30;8.27;;;;;;;16.39;57.57;96563.84;10448650;28;20025;-29
2022/12/20 21:45:32;;;;;;;14.43;7.97;;;;;;;16.38;57.55;96557.94;10437197;28;20033;-28
2022/12/20 21:50:33;;;;;;;14.05;8.00;;;;;;;16.39;57.58;96562.19;10447046;28;20115;-29
2022/12/20 21:55:33;;;;;;;14.00;7.93;;;;;;;16.36;57.99;96554.53;10437110;28;20028;-29
2022/12/20 22:00:33;;;;;;;12.23;7.40;;;;;;;16.37;57.86;96553.72;10440814;28;20378;-28
2022/12/20 22:05:34;;;;;;;12.47;7.97;;;;;;;16.35;58.69;96557.91;10440961;28;20036;-29
2022/12/20 22:10:34;;;;;;;13.83;7.50;;;;;;;16.34;58.48;96551.16;10434508;28;20021;-28
2022/12/20 22:15:38;;;;;;;14.07;8.00;;;;;;;16.32;58.66;96542.72;10442117;28;20371;-28
2022/12/20 22:20:43;;;;;;;15.63;8.05;;;;;;;16.34;58.09;96551.16;10440154;28;20297;-28
2022/12/20 22:25:43;;;;;;;12.82;7.60;;;;;;;16.34;57.91;96561.25;10441690;28;20048;-28
2022/12/20 22:30:43;;;;;;;11.90;7.03;;;;;;;16.36;57.75;96561.28;10430182;28;20025;-29
2022/12/20 22:35:44;;;;;;;16.27;7.53;;;;;;;16.28;57.52;96556.16;10447724;28;20488;-28
2022/12/20 22:40:44;;;;;;;11.43;6.63;;;;;;;16.34;58.17;96570.50;10435364;28;20296;-28
2022/12/20 22:45:56;;;;;;;12.53;7.60;;;;;;;16.33;58.30;96569.69;10437580;28;20138;-29
2022/12/20 22:51:09;;;;;;;11.43;7.10;;;;;;;16.34;57.85;96565.44;10444092;28;20043;-29
2022/12/20 22:56:09;;;;;;;13.63;7.50;;;;;;;16.33;57.97;96563.75;10441837;28;20376;-28
2022/12/20 23:01:12;;;;;;;9.98;7.03;;;;;;;16.35;57.90;96572.22;10444700;28;20036;-28
2022/12/20 23:06:16;;;;;;;10.93;6.57;;;;;;;16.35;57.89;96578.09;10434099;28;20037;-28
2022/12/20 23:16:38;;;;;;;14.35;7.55;;;;;;;16.27;57.19;96572.16;10436056;28;20024;-27
2022/12/20 23:26:57;;;;;;;12.32;6.60;;;;;;;16.33;57.77;96583.97;10435905;28;20438;-28
2022/12/20 23:31:58;;;;;;;14.43;7.38;;;;;;;16.31;58.49;96586.50;10430282;28;20028;-28
2022/12/20 23:36:58;;;;;;;9.90;6.07;;;;;;;16.15;59.23;96567.03;10442181;28;20021;-28
2022/12/20 23:41:59;;;;;;;11.48;6.28;;;;;;;16.29;58.40;96598.25;10427513;28;20040;-28